sensor_id;sensor_type;location;lat;lon;timestamp;pressure;altitude;pressure_sealevel;temperature;humidity
28648;BME280;17137;51.494;-0.262;2023-01-30T00:00:13;50604.28;;;-145.72;95.40
28648;BME280;17137;51.494;-0.262;2023-01-30T00:00:43;50612.42;;;-145.72;95.62
28648;BME280;17137;51.494;-0.262;2023-01-30T00:01:17;50617.22;;;-145.72;95.83
28648;BME280;17137;51.494;-0.262;2023-01-30T00:01:48;50622.16;;;-145.72;95.74
28648;BME280;17137;51.494;-0.262;2023-01-30T00:02:18;50609.09;;;-145.72;95.74
28648;BME280;17137;51.494;-0.262;2023-01-30T00:02:48;50608.23;;;-145.72;95.58
28648;BME280;17137;51.494;-0.262;2023-01-30T00:03:19;50611.68;;;-145.72;95.36
28648;BME280;17137;51.494;-0.262;2023-01-30T00:03:51;50610.94;;;-145.72;95.31
28648;BME280;17137;51.494;-0.262;2023-01-30T00:04:21;50617.72;;;-145.72;95.69
28648;BME280;17137;51.494;-0.262;2023-01-30T00:04:51;50612.29;;;-145.72;95.64
28648;BME280;17137;51.494;-0.262;2023-01-30T00:05:22;50603.05;;;-145.72;95.45
28648;BME280;17137;51.494;-0.262;2023-01-30T00:05:53;50597.50;;;-145.72;95.23
28648;BME280;17137;51.494;-0.262;2023-01-30T00:06:24;50607.98;;;-145.72;95.13
28648;BME280;17137;51.494;-0.262;2023-01-30T00:06:54;50611.31;;;-145.72;94.96
28648;BME280;17137;51.494;-0.262;2023-01-30T00:07:25;50622.03;;;-145.72;94.80
28648;BME280;17137;51.494;-0.262;2023-01-30T00:07:55;50604.16;;;-145.72;94.97
28648;BME280;17137;51.494;-0.262;2023-01-30T00:08:30;50609.46;;;-145.72;95.08
28648;BME280;17137;51.494;-0.262;2023-01-30T00:09:00;50617.35;;;-145.72;95.24
28648;BME280;17137;51.494;-0.262;2023-01-30T00:09:31;50617.96;;;-145.72;95.14
28648;BME280;17137;51.494;-0.262;2023-01-30T00:10:01;50598.86;;;-145.72;95.06
28648;BME280;17137;51.494;-0.262;2023-01-30T00:10:32;50610.32;;;-145.72;95.08
28648;BME280;17137;51.494;-0.262;2023-01-30T00:11:03;50617.47;;;-145.72;95.15
28648;BME280;17137;51.494;-0.262;2023-01-30T00:11:34;50607.36;;;-145.72;95.24
28648;BME280;17137;51.494;-0.262;2023-01-30T00:12:05;50609.58;;;-145.72;96.01
28648;BME280;17137;51.494;-0.262;2023-01-30T00:12:35;50610.20;;;-145.72;96.19
28648;BME280;17137;51.494;-0.262;2023-01-30T00:13:06;50613.53;;;-145.72;96.10
28648;BME280;17137;51.494;-0.262;2023-01-30T00:13:37;50610.20;;;-145.72;96.01
28648;BME280;17137;51.494;-0.262;2023-01-30T00:14:07;50607.49;;;-145.72;96.07
28648;BME280;17137;51.494;-0.262;2023-01-30T00:14:38;50617.22;;;-145.72;96.12
28648;BME280;17137;51.494;-0.262;2023-01-30T00:15:08;50601.08;;;-145.72;96.11
28648;BME280;17137;51.494;-0.262;2023-01-30T00:15:39;50624.50;;;-145.72;96.12
28648;BME280;17137;51.494;-0.262;2023-01-30T00:16:10;50612.54;;;-145.72;96.11
28648;BME280;17137;51.494;-0.262;2023-01-30T00:16:41;50618.83;;;-145.72;95.63
28648;BME280;17137;51.494;-0.262;2023-01-30T00:17:11;50612.79;;;-145.72;95.99
28648;BME280;17137;51.494;-0.262;2023-01-30T00:17:41;50606.99;;;-145.72;95.98
28648;BME280;17137;51.494;-0.262;2023-01-30T00:18:12;50605.27;;;-145.72;95.83
28648;BME280;17137;51.494;-0.262;2023-01-30T00:18:42;50610.69;;;-145.72;95.66
28648;BME280;17137;51.494;-0.262;2023-01-30T00:19:13;50622.03;;;-145.72;95.51
28648;BME280;17137;51.494;-0.262;2023-01-30T00:19:43;50606.99;;;-145.72;95.50
28648;BME280;17137;51.494;-0.262;2023-01-30T00:20:13;50619.81;;;-145.72;95.71
28648;BME280;17137;51.494;-0.262;2023-01-30T00:20:44;50614.88;;;-145.72;95.67
28648;BME280;17137;51.494;-0.262;2023-01-30T00:21:14;50615.25;;;-145.72;95.50
28648;BME280;17137;51.494;-0.262;2023-01-30T00:21:44;50593.92;;;-145.72;95.40
28648;BME280;17137;51.494;-0.262;2023-01-30T00:22:14;50600.71;;;-145.72;95.32
28648;BME280;17137;51.494;-0.262;2023-01-30T00:22:45;50595.16;;;-145.72;95.29
28648;BME280;17137;51.494;-0.262;2023-01-30T00:23:15;50600.34;;;-145.72;95.06
28648;BME280;17137;51.494;-0.262;2023-01-30T00:23:45;50605.39;;;-145.72;95.05
28648;BME280;17137;51.494;-0.262;2023-01-30T00:24:15;50601.94;;;-145.72;95.01
28648;BME280;17137;51.494;-0.262;2023-01-30T00:24:46;50606.62;;;-145.72;94.99
28648;BME280;17137;51.494;-0.262;2023-01-30T00:25:16;50603.17;;;-145.72;95.51
28648;BME280;17137;51.494;-0.262;2023-01-30T00:25:46;50613.77;;;-145.72;95.56
28648;BME280;17137;51.494;-0.262;2023-01-30T00:26:16;50607.12;;;-145.72;95.51
28648;BME280;17137;51.494;-0.262;2023-01-30T00:26:47;50596.76;;;-145.72;95.54
28648;BME280;17137;51.494;-0.262;2023-01-30T00:27:17;50613.77;;;-145.72;95.65
28648;BME280;17137;51.494;-0.262;2023-01-30T00:27:47;50600.71;;;-145.72;95.69
28648;BME280;17137;51.494;-0.262;2023-01-30T00:28:18;50604.65;;;-145.72;95.80
28648;BME280;17137;51.494;-0.262;2023-01-30T00:28:48;50610.44;;;-145.72;96.24
28648;BME280;17137;51.494;-0.262;2023-01-30T00:29:19;50619.20;;;-145.72;96.49
28648;BME280;17137;51.494;-0.262;2023-01-30T00:29:49;50604.40;;;-145.72;96.64
28648;BME280;17137;51.494;-0.262;2023-01-30T00:30:19;50602.92;;;-145.72;96.65
28648;BME280;17137;51.494;-0.262;2023-01-30T00:30:51;50598.86;;;-145.72;96.34
28648;BME280;17137;51.494;-0.262;2023-01-30T00:31:22;50615.50;;;-145.72;96.38
28648;BME280;17137;51.494;-0.262;2023-01-30T00:31:52;50614.76;;;-145.72;96.38
28648;BME280;17137;51.494;-0.262;2023-01-30T00:32:22;50605.88;;;-145.72;96.17
28648;BME280;17137;51.494;-0.262;2023-01-30T00:32:54;50602.80;;;-145.72;95.97
28648;BME280;17137;51.494;-0.262;2023-01-30T00:33:25;50595.90;;;-145.72;95.67
28648;BME280;17137;51.494;-0.262;2023-01-30T00:33:56;50595.40;;;-145.72;95.46
28648;BME280;17137;51.494;-0.262;2023-01-30T00:34:26;50592.69;;;-145.72;95.44
28648;BME280;17137;51.494;-0.262;2023-01-30T00:34:56;50608.96;;;-145.72;95.68
28648;BME280;17137;51.494;-0.262;2023-01-30T00:35:26;50601.57;;;-145.72;95.68
28648;BME280;17137;51.494;-0.262;2023-01-30T00:35:57;50599.35;;;-145.72;95.91
28648;BME280;17137;51.494;-0.262;2023-01-30T00:36:27;50602.43;;;-145.72;95.92
28648;BME280;17137;51.494;-0.262;2023-01-30T00:36:57;50595.77;;;-145.72;96.06
28648;BME280;17137;51.494;-0.262;2023-01-30T00:37:28;50595.53;;;-145.72;96.00
28648;BME280;17137;51.494;-0.262;2023-01-30T00:38:00;50589.61;;;-145.72;95.99
28648;BME280;17137;51.494;-0.262;2023-01-30T00:38:30;50610.94;;;-145.72;96.06
28648;BME280;17137;51.494;-0.262;2023-01-30T00:39:00;50604.03;;;-145.72;96.26
28648;BME280;17137;51.494;-0.262;2023-01-30T00:39:35;50599.84;;;-145.72;96.54
28648;BME280;17137;51.494;-0.262;2023-01-30T00:40:07;50605.76;;;-145.72;96.66
28648;BME280;17137;51.494;-0.262;2023-01-30T00:40:37;50619.94;;;-145.72;97.13
28648;BME280;17137;51.494;-0.262;2023-01-30T00:41:08;50615.99;;;-145.72;97.16
28648;BME280;17137;51.494;-0.262;2023-01-30T00:41:38;50608.35;;;-145.72;97.07
28648;BME280;17137;51.494;-0.262;2023-01-30T00:42:09;50608.47;;;-145.72;96.99
28648;BME280;17137;51.494;-0.262;2023-01-30T00:42:39;50609.46;;;-145.72;96.65
28648;BME280;17137;51.494;-0.262;2023-01-30T00:43:10;50593.56;;;-145.72;96.22
28648;BME280;17137;51.494;-0.262;2023-01-30T00:43:41;50613.65;;;-145.72;95.72
28648;BME280;17137;51.494;-0.262;2023-01-30T00:44:11;50606.38;;;-145.72;96.13
28648;BME280;17137;51.494;-0.262;2023-01-30T00:44:41;50617.72;;;-145.72;95.92
28648;BME280;17137;51.494;-0.262;2023-01-30T00:45:12;50606.25;;;-145.72;95.56
28648;BME280;17137;51.494;-0.262;2023-01-30T00:45:43;50598.12;;;-145.72;95.23
28648;BME280;17137;51.494;-0.262;2023-01-30T00:46:16;50606.38;;;-145.72;95.23
28648;BME280;17137;51.494;-0.262;2023-01-30T00:46:49;50593.06;;;-145.72;94.87
28648;BME280;17137;51.494;-0.262;2023-01-30T00:47:20;50605.51;;;-145.72;94.83
28648;BME280;17137;51.494;-0.262;2023-01-30T00:47:51;50598.86;;;-145.72;94.65
28648;BME280;17137;51.494;-0.262;2023-01-30T00:48:26;50607.24;;;-145.72;94.66
28648;BME280;17137;51.494;-0.262;2023-01-30T00:48:57;50600.71;;;-145.72;94.53
28648;BME280;17137;51.494;-0.262;2023-01-30T00:49:27;50595.28;;;-145.72;94.42
28648;BME280;17137;51.494;-0.262;2023-01-30T00:49:57;50594.54;;;-145.72;94.28
28648;BME280;17137;51.494;-0.262;2023-01-30T00:50:28;50590.47;;;-145.72;94.31
28648;BME280;17137;51.494;-0.262;2023-01-30T00:50:59;50599.23;;;-145.72;94.51
28648;BME280;17137;51.494;-0.262;2023-01-30T00:51:29;50603.91;;;-145.72;94.76
28648;BME280;17137;51.494;-0.262;2023-01-30T00:51:59;50595.03;;;-145.72;94.69
28648;BME280;17137;51.494;-0.262;2023-01-30T00:52:30;50598.98;;;-145.72;94.57
28648;BME280;17137;51.494;-0.262;2023-01-30T00:53:00;50609.58;;;-145.72;94.93
28648;BME280;17137;51.494;-0.262;2023-01-30T00:53:30;50600.83;;;-145.72;94.84
28648;BME280;17137;51.494;-0.262;2023-01-30T00:54:00;50592.57;;;-145.72;94.79
28648;BME280;17137;51.494;-0.262;2023-01-30T00:54:31;50595.40;;;-145.72;94.73
28648;BME280;17137;51.494;-0.262;2023-01-30T00:55:01;50603.29;;;-145.72;95.08
28648;BME280;17137;51.494;-0.262;2023-01-30T00:55:31;50600.21;;;-145.72;95.18
28648;BME280;17137;51.494;-0.262;2023-01-30T00:56:02;50597.50;;;-145.72;95.23
28648;BME280;17137;51.494;-0.262;2023-01-30T00:56:32;50604.16;;;-145.72;95.08
28648;BME280;17137;51.494;-0.262;2023-01-30T00:57:03;50595.40;;;-145.72;95.07
28648;BME280;17137;51.494;-0.262;2023-01-30T00:57:33;50604.90;;;-145.72;95.02
28648;BME280;17137;51.494;-0.262;2023-01-30T00:58:03;50596.02;;;-145.72;94.82
28648;BME280;17137;51.494;-0.262;2023-01-30T00:58:34;50597.01;;;-145.72;94.78
28648;BME280;17137;51.494;-0.262;2023-01-30T00:59:04;50596.02;;;-145.72;94.91
28648;BME280;17137;51.494;-0.262;2023-01-30T00:59:35;50603.17;;;-145.72;95.02
28648;BME280;17137;51.494;-0.262;2023-01-30T01:00:06;50600.71;;;-145.72;95.00
28648;BME280;17137;51.494;-0.262;2023-01-30T01:00:37;50596.27;;;-145.72;95.10
28648;BME280;17137;51.494;-0.262;2023-01-30T01:01:07;50594.54;;;-145.72;95.28
28648;BME280;17137;51.494;-0.262;2023-01-30T01:01:37;50583.45;;;-145.72;95.47
28648;BME280;17137;51.494;-0.262;2023-01-30T01:02:08;50598.98;;;-145.72;95.69
28648;BME280;17137;51.494;-0.262;2023-01-30T01:02:38;50600.46;;;-145.72;95.76
28648;BME280;17137;51.494;-0.262;2023-01-30T01:03:09;50603.66;;;-145.72;96.07
28648;BME280;17137;51.494;-0.262;2023-01-30T01:03:39;50603.79;;;-145.72;96.46
28648;BME280;17137;51.494;-0.262;2023-01-30T01:04:09;50602.55;;;-145.72;96.60
28648;BME280;17137;51.494;-0.262;2023-01-30T01:04:40;50611.18;;;-145.72;96.75
28648;BME280;17137;51.494;-0.262;2023-01-30T01:05:10;50607.12;;;-145.72;97.03
28648;BME280;17137;51.494;-0.262;2023-01-30T01:05:41;50608.96;;;-145.72;97.26
28648;BME280;17137;51.494;-0.262;2023-01-30T01:06:12;50600.83;;;-145.72;97.32
28648;BME280;17137;51.494;-0.262;2023-01-30T01:06:42;50600.95;;;-145.72;97.29
28648;BME280;17137;51.494;-0.262;2023-01-30T01:07:13;50595.28;;;-145.72;97.57
28648;BME280;17137;51.494;-0.262;2023-01-30T01:07:44;50612.29;;;-145.72;97.57
28648;BME280;17137;51.494;-0.262;2023-01-30T01:08:14;50600.34;;;-145.72;97.62
28648;BME280;17137;51.494;-0.262;2023-01-30T01:08:44;50598.98;;;-145.72;97.61
28648;BME280;17137;51.494;-0.262;2023-01-30T01:09:15;50599.23;;;-145.72;97.59
28648;BME280;17137;51.494;-0.262;2023-01-30T01:09:45;50592.32;;;-145.72;97.59
28648;BME280;17137;51.494;-0.262;2023-01-30T01:10:16;50599.97;;;-145.72;97.55
28648;BME280;17137;51.494;-0.262;2023-01-30T01:10:46;50598.98;;;-145.72;97.69
28648;BME280;17137;51.494;-0.262;2023-01-30T01:11:17;50597.62;;;-145.72;97.67
28648;BME280;17137;51.494;-0.262;2023-01-30T01:11:47;50599.84;;;-145.72;97.71
28648;BME280;17137;51.494;-0.262;2023-01-30T01:12:17;50604.16;;;-145.72;97.72
28648;BME280;17137;51.494;-0.262;2023-01-30T01:12:49;50598.24;;;-145.72;97.94
28648;BME280;17137;51.494;-0.262;2023-01-30T01:13:19;50610.07;;;-145.72;98.24
28648;BME280;17137;51.494;-0.262;2023-01-30T01:13:52;50617.72;;;-145.72;98.29
28648;BME280;17137;51.494;-0.262;2023-01-30T01:14:22;50609.58;;;-145.72;98.35
28648;BME280;17137;51.494;-0.262;2023-01-30T01:14:53;50609.33;;;-145.72;98.38
28648;BME280;17137;51.494;-0.262;2023-01-30T01:15:24;50604.16;;;-145.72;98.62
28648;BME280;17137;51.494;-0.262;2023-01-30T01:15:55;50597.87;;;-145.72;98.81
28648;BME280;17137;51.494;-0.262;2023-01-30T01:16:26;50601.57;;;-145.72;98.87
28648;BME280;17137;51.494;-0.262;2023-01-30T01:16:57;50613.90;;;-145.72;99.05
28648;BME280;17137;51.494;-0.262;2023-01-30T01:17:27;50602.92;;;-145.72;99.06
28648;BME280;17137;51.494;-0.262;2023-01-30T01:17:58;50610.69;;;-145.72;99.38
28648;BME280;17137;51.494;-0.262;2023-01-30T01:18:28;50612.42;;;-145.72;99.34
28648;BME280;17137;51.494;-0.262;2023-01-30T01:18:59;50604.40;;;-145.72;99.33
28648;BME280;17137;51.494;-0.262;2023-01-30T01:19:30;50597.50;;;-145.72;99.12
28648;BME280;17137;51.494;-0.262;2023-01-30T01:20:00;50591.21;;;-145.72;98.82
28648;BME280;17137;51.494;-0.262;2023-01-30T01:20:30;50592.57;;;-145.72;98.87
28648;BME280;17137;51.494;-0.262;2023-01-30T01:21:00;50593.06;;;-145.72;98.72
28648;BME280;17137;51.494;-0.262;2023-01-30T01:21:31;50600.58;;;-145.72;98.62
28648;BME280;17137;51.494;-0.262;2023-01-30T01:22:01;50600.71;;;-145.72;98.64
28648;BME280;17137;51.494;-0.262;2023-01-30T01:22:31;50595.16;;;-145.72;98.71
28648;BME280;17137;51.494;-0.262;2023-01-30T01:23:02;50593.80;;;-145.72;98.63
28648;BME280;17137;51.494;-0.262;2023-01-30T01:23:32;50594.05;;;-145.72;98.75
28648;BME280;17137;51.494;-0.262;2023-01-30T01:24:02;50588.13;;;-145.72;98.68
28648;BME280;17137;51.494;-0.262;2023-01-30T01:24:33;50593.43;;;-145.72;98.64
28648;BME280;17137;51.494;-0.262;2023-01-30T01:25:04;50594.79;;;-145.72;98.50
28648;BME280;17137;51.494;-0.262;2023-01-30T01:25:34;50596.27;;;-145.72;98.63
28648;BME280;17137;51.494;-0.262;2023-01-30T01:26:10;50597.38;;;-145.72;98.82
28648;BME280;17137;51.494;-0.262;2023-01-30T01:26:40;50589.98;;;-145.72;98.62
28648;BME280;17137;51.494;-0.262;2023-01-30T01:27:11;50582.95;;;-145.72;98.55
28648;BME280;17137;51.494;-0.262;2023-01-30T01:27:41;50592.69;;;-145.72;98.42
28648;BME280;17137;51.494;-0.262;2023-01-30T01:28:11;50586.16;;;-145.72;98.56
28648;BME280;17137;51.494;-0.262;2023-01-30T01:28:42;50593.43;;;-145.72;98.57
28648;BME280;17137;51.494;-0.262;2023-01-30T01:29:16;50591.09;;;-145.72;98.80
28648;BME280;17137;51.494;-0.262;2023-01-30T01:29:46;50598.12;;;-145.72;98.94
28648;BME280;17137;51.494;-0.262;2023-01-30T01:30:17;50584.93;;;-145.72;98.67
28648;BME280;17137;51.494;-0.262;2023-01-30T01:30:47;50598.36;;;-145.72;98.74
28648;BME280;17137;51.494;-0.262;2023-01-30T01:31:17;50594.42;;;-145.72;99.15
28648;BME280;17137;51.494;-0.262;2023-01-30T01:31:48;50589.24;;;-145.72;99.08
28648;BME280;17137;51.494;-0.262;2023-01-30T01:32:19;50583.57;;;-145.72;98.89
28648;BME280;17137;51.494;-0.262;2023-01-30T01:32:49;50593.56;;;-145.72;98.59
28648;BME280;17137;51.494;-0.262;2023-01-30T01:33:20;50596.76;;;-145.72;98.50
28648;BME280;17137;51.494;-0.262;2023-01-30T01:33:50;50582.46;;;-145.72;98.07
28648;BME280;17137;51.494;-0.262;2023-01-30T01:34:21;50593.06;;;-145.72;98.00
28648;BME280;17137;51.494;-0.262;2023-01-30T01:34:51;50591.58;;;-145.72;97.97
28648;BME280;17137;51.494;-0.262;2023-01-30T01:35:22;50590.60;;;-145.72;97.94
28648;BME280;17137;51.494;-0.262;2023-01-30T01:35:54;50586.16;;;-145.72;97.86
28648;BME280;17137;51.494;-0.262;2023-01-30T01:36:24;50572.23;;;-145.72;97.70
28648;BME280;17137;51.494;-0.262;2023-01-30T01:36:55;50591.58;;;-145.72;98.12
28648;BME280;17137;51.494;-0.262;2023-01-30T01:37:25;50583.32;;;-145.72;98.09
28648;BME280;17137;51.494;-0.262;2023-01-30T01:37:55;50588.75;;;-145.72;97.76
28648;BME280;17137;51.494;-0.262;2023-01-30T01:38:26;50571.24;;;-145.72;97.77
28648;BME280;17137;51.494;-0.262;2023-01-30T01:38:56;50595.90;;;-145.72;97.67
28648;BME280;17137;51.494;-0.262;2023-01-30T01:39:26;50579.25;;;-145.72;97.57
28648;BME280;17137;51.494;-0.262;2023-01-30T01:39:57;50582.58;;;-145.72;97.47
28648;BME280;17137;51.494;-0.262;2023-01-30T01:40:27;50595.77;;;-145.72;97.61
28648;BME280;17137;51.494;-0.262;2023-01-30T01:41:26;50574.32;;;-145.72;97.57
28648;BME280;17137;51.494;-0.262;2023-01-30T01:41:57;50582.95;;;-145.72;97.35
28648;BME280;17137;51.494;-0.262;2023-01-30T01:42:29;50584.43;;;-145.72;97.40
28648;BME280;17137;51.494;-0.262;2023-01-30T01:43:07;50577.78;;;-145.72;97.18
28648;BME280;17137;51.494;-0.262;2023-01-30T01:43:59;50582.46;;;-145.72;97.25
28648;BME280;17137;51.494;-0.262;2023-01-30T01:44:58;50572.10;;;-145.72;97.40
28648;BME280;17137;51.494;-0.262;2023-01-30T01:45:29;50589.24;;;-145.72;97.35
28648;BME280;17137;51.494;-0.262;2023-01-30T01:46:02;50575.31;;;-145.72;97.31
28648;BME280;17137;51.494;-0.262;2023-01-30T01:46:36;50579.99;;;-145.72;97.15
28648;BME280;17137;51.494;-0.262;2023-01-30T01:47:08;50572.35;;;-145.72;97.04
28648;BME280;17137;51.494;-0.262;2023-01-30T01:47:42;50570.01;;;-145.72;96.85
28648;BME280;17137;51.494;-0.262;2023-01-30T01:48:18;50573.09;;;-145.72;96.77
28648;BME280;17137;51.494;-0.262;2023-01-30T01:48:55;50574.82;;;-145.72;96.76
28648;BME280;17137;51.494;-0.262;2023-01-30T01:49:28;50580.36;;;-145.72;96.96
28648;BME280;17137;51.494;-0.262;2023-01-30T01:49:59;50577.90;;;-145.72;96.60
28648;BME280;17137;51.494;-0.262;2023-01-30T01:50:38;50575.06;;;-145.72;96.56
28648;BME280;17137;51.494;-0.262;2023-01-30T01:51:12;50582.71;;;-145.72;96.54
28648;BME280;17137;51.494;-0.262;2023-01-30T01:51:50;50580.49;;;-145.72;96.32
28648;BME280;17137;51.494;-0.262;2023-01-30T01:52:22;50584.19;;;-145.72;96.12
28648;BME280;17137;51.494;-0.262;2023-01-30T01:52:54;50573.58;;;-145.72;95.94
28648;BME280;17137;51.494;-0.262;2023-01-30T01:53:28;50575.80;;;-145.72;96.17
28648;BME280;17137;51.494;-0.262;2023-01-30T01:54:03;50564.22;;;-145.72;96.10
28648;BME280;17137;51.494;-0.262;2023-01-30T01:54:40;50580.12;;;-145.72;96.43
28648;BME280;17137;51.494;-0.262;2023-01-30T01:55:13;50574.94;;;-145.72;96.55
28648;BME280;17137;51.494;-0.262;2023-01-30T01:55:47;50585.42;;;-145.72;97.04
28648;BME280;17137;51.494;-0.262;2023-01-30T01:56:20;50589.98;;;-145.72;97.35
28648;BME280;17137;51.494;-0.262;2023-01-30T01:56:51;50586.77;;;-145.72;97.56
28648;BME280;17137;51.494;-0.262;2023-01-30T01:57:25;50586.28;;;-145.72;97.60
28648;BME280;17137;51.494;-0.262;2023-01-30T01:58:03;50579.50;;;-145.72;97.38
28648;BME280;17137;51.494;-0.262;2023-01-30T01:58:39;50581.60;;;-145.72;97.16
28648;BME280;17137;51.494;-0.262;2023-01-30T01:59:15;50582.21;;;-145.72;97.18
28648;BME280;17137;51.494;-0.262;2023-01-30T01:59:51;50576.42;;;-145.72;97.10
28648;BME280;17137;51.494;-0.262;2023-01-30T02:00:22;50586.40;;;-145.72;97.08
28648;BME280;17137;51.494;-0.262;2023-01-30T02:00:55;50575.68;;;-145.72;96.91
28648;BME280;17137;51.494;-0.262;2023-01-30T02:01:27;50585.30;;;-145.72;96.88
28648;BME280;17137;51.494;-0.262;2023-01-30T02:02:01;50586.04;;;-145.72;96.86
28648;BME280;17137;51.494;-0.262;2023-01-30T02:02:33;50584.93;;;-145.72;96.88
28648;BME280;17137;51.494;-0.262;2023-01-30T02:03:05;50579.99;;;-145.72;96.79
28648;BME280;17137;51.494;-0.262;2023-01-30T02:03:41;50587.88;;;-145.72;96.72
28648;BME280;17137;51.494;-0.262;2023-01-30T02:04:11;50584.06;;;-145.72;96.93
28648;BME280;17137;51.494;-0.262;2023-01-30T02:04:45;50579.01;;;-145.72;96.67
28648;BME280;17137;51.494;-0.262;2023-01-30T02:05:18;50579.99;;;-145.72;96.90
28648;BME280;17137;51.494;-0.262;2023-01-30T02:05:52;50583.08;;;-145.72;96.98
28648;BME280;17137;51.494;-0.262;2023-01-30T02:06:24;50584.19;;;-145.72;96.80
28648;BME280;17137;51.494;-0.262;2023-01-30T02:06:55;50580.12;;;-145.72;97.25
28648;BME280;17137;51.494;-0.262;2023-01-30T02:07:26;50588.87;;;-145.72;97.87
28648;BME280;17137;51.494;-0.262;2023-01-30T02:08:01;50590.60;;;-145.72;98.03
28648;BME280;17137;51.494;-0.262;2023-01-30T02:08:35;50584.93;;;-145.72;97.82
28648;BME280;17137;51.494;-0.262;2023-01-30T02:09:08;50592.32;;;-145.72;97.93
28648;BME280;17137;51.494;-0.262;2023-01-30T02:09:39;50579.13;;;-145.72;98.01
28648;BME280;17137;51.494;-0.262;2023-01-30T02:10:14;50589.49;;;-145.72;98.19
28648;BME280;17137;51.494;-0.262;2023-01-30T02:10:49;50594.05;;;-145.72;98.03
28648;BME280;17137;51.494;-0.262;2023-01-30T02:11:32;50583.69;;;-145.72;97.62
28648;BME280;17137;51.494;-0.262;2023-01-30T02:12:06;50576.91;;;-145.72;97.35
28648;BME280;17137;51.494;-0.262;2023-01-30T02:12:38;50588.38;;;-145.72;97.13
28648;BME280;17137;51.494;-0.262;2023-01-30T02:13:09;50578.52;;;-145.72;97.17
28648;BME280;17137;51.494;-0.262;2023-01-30T02:13:39;50581.84;;;-145.72;97.54
28648;BME280;17137;51.494;-0.262;2023-01-30T02:14:10;50587.51;;;-145.72;97.59
28648;BME280;17137;51.494;-0.262;2023-01-30T02:14:42;50581.72;;;-145.72;97.47
28648;BME280;17137;51.494;-0.262;2023-01-30T02:15:13;50584.19;;;-145.72;97.44
28648;BME280;17137;51.494;-0.262;2023-01-30T02:15:43;50579.75;;;-145.72;97.10
28648;BME280;17137;51.494;-0.262;2023-01-30T02:16:14;50577.28;;;-145.72;96.89
28648;BME280;17137;51.494;-0.262;2023-01-30T02:16:46;50563.97;;;-145.72;96.94
28648;BME280;17137;51.494;-0.262;2023-01-30T02:17:16;50583.08;;;-145.72;96.67
28648;BME280;17137;51.494;-0.262;2023-01-30T02:17:46;50569.15;;;-145.72;96.44
28648;BME280;17137;51.494;-0.262;2023-01-30T02:18:17;50576.42;;;-145.72;96.36
28648;BME280;17137;51.494;-0.262;2023-01-30T02:18:48;50573.34;;;-145.72;96.58
28648;BME280;17137;51.494;-0.262;2023-01-30T02:19:24;50563.72;;;-145.72;96.86
28648;BME280;17137;51.494;-0.262;2023-01-30T02:20:04;50573.95;;;-145.72;97.33
28648;BME280;17137;51.494;-0.262;2023-01-30T02:20:59;50588.50;;;-145.72;97.61
28648;BME280;17137;51.494;-0.262;2023-01-30T02:21:50;50569.76;;;-145.72;97.79
28648;BME280;17137;51.494;-0.262;2023-01-30T02:22:42;50577.04;;;-145.72;98.30
28648;BME280;17137;51.494;-0.262;2023-01-30T02:23:38;50570.26;;;-145.72;98.18
28648;BME280;17137;51.494;-0.262;2023-01-30T02:24:30;50578.39;;;-145.72;97.95
28648;BME280;17137;51.494;-0.262;2023-01-30T02:25:17;50559.90;;;-145.72;97.54
28648;BME280;17137;51.494;-0.262;2023-01-30T02:26:13;50571.00;;;-145.72;97.18
28648;BME280;17137;51.494;-0.262;2023-01-30T02:27:07;50565.94;;;-145.72;97.11
28648;BME280;17137;51.494;-0.262;2023-01-30T02:27:57;50579.75;;;-145.72;97.22
28648;BME280;17137;51.494;-0.262;2023-01-30T02:28:47;50583.45;;;-145.72;97.50
28648;BME280;17137;51.494;-0.262;2023-01-30T02:29:40;50567.91;;;-145.72;97.33
28648;BME280;17137;51.494;-0.262;2023-01-30T02:30:45;50577.04;;;-145.72;96.96
28648;BME280;17137;51.494;-0.262;2023-01-30T02:31:29;50571.00;;;-145.72;96.96
28648;BME280;17137;51.494;-0.262;2023-01-30T02:32:07;50575.80;;;-145.72;97.20
28648;BME280;17137;51.494;-0.262;2023-01-30T02:32:45;50561.87;;;-145.72;97.34
28648;BME280;17137;51.494;-0.262;2023-01-30T02:33:27;50580.12;;;-145.72;97.35
28648;BME280;17137;51.494;-0.262;2023-01-30T02:34:12;50579.62;;;-145.72;97.30
28648;BME280;17137;51.494;-0.262;2023-01-30T02:34:53;50566.80;;;-145.72;97.73
28648;BME280;17137;51.494;-0.262;2023-01-30T02:35:30;50575.43;;;-145.72;97.91
28648;BME280;17137;51.494;-0.262;2023-01-30T02:36:09;50558.67;;;-145.72;97.79
28648;BME280;17137;51.494;-0.262;2023-01-30T02:36:50;50570.63;;;-145.72;97.41
28648;BME280;17137;51.494;-0.262;2023-01-30T02:37:30;50575.43;;;-145.72;97.10
28648;BME280;17137;51.494;-0.262;2023-01-30T02:38:15;50567.91;;;-145.72;97.17
28648;BME280;17137;51.494;-0.262;2023-01-30T02:38:54;50570.01;;;-145.72;97.16
28648;BME280;17137;51.494;-0.262;2023-01-30T02:39:36;50576.17;;;-145.72;97.11
28648;BME280;17137;51.494;-0.262;2023-01-30T02:40:22;50567.54;;;-145.72;97.19
28648;BME280;17137;51.494;-0.262;2023-01-30T02:41:04;50559.04;;;-145.72;96.98
28648;BME280;17137;51.494;-0.262;2023-01-30T02:41:47;50566.31;;;-145.72;96.78
28648;BME280;17137;51.494;-0.262;2023-01-30T02:42:24;50556.20;;;-145.72;96.87
28648;BME280;17137;51.494;-0.262;2023-01-30T02:43:07;50568.78;;;-145.72;97.00
28648;BME280;17137;51.494;-0.262;2023-01-30T02:43:45;50555.83;;;-145.72;96.81
28648;BME280;17137;51.494;-0.262;2023-01-30T02:44:25;50570.01;;;-145.72;96.70
28648;BME280;17137;51.494;-0.262;2023-01-30T02:45:02;50561.87;;;-145.72;96.44
28648;BME280;17137;51.494;-0.262;2023-01-30T02:45:41;50572.47;;;-145.72;96.70
28648;BME280;17137;51.494;-0.262;2023-01-30T02:46:19;50564.46;;;-145.72;96.71
28648;BME280;17137;51.494;-0.262;2023-01-30T02:46:56;50548.31;;;-145.72;96.44
28648;BME280;17137;51.494;-0.262;2023-01-30T02:47:32;50562.24;;;-145.72;96.48
28648;BME280;17137;51.494;-0.262;2023-01-30T02:48:05;50561.75;;;-145.72;96.83
28648;BME280;17137;51.494;-0.262;2023-01-30T02:48:40;50565.94;;;-145.72;96.87
28648;BME280;17137;51.494;-0.262;2023-01-30T02:49:17;50557.31;;;-145.72;97.10